Time;durP1;ratioP1;P1;durP2;ratioP2;P2;SDS_P1;SDS_P2;PMS_P1;PMS_P2;Temp;Humidity;BMP_temperature;BMP_pressure;BME280_temperature;BME280_humidity;BME280_pressure;Samples;Min_cycle;Max_cycle;Signal;HPM_P1;HPM_P2
2023/08/13 00:00:32;;;;;;;13.45;2.05;;;;;;;;;;5066996;28;20139;-72
2023/08/13 00:02:59;;;;;;;9.35;1.90;;;;;;;;;;5066883;28;20121;-72
2023/08/13 00:05:28;;;;;;;10.70;1.75;;;;;;;;;;5068603;28;20248;-72
2023/08/13 00:07:55;;;;;;;14.23;2.10;;;;;;;;;;5067947;28;20046;-71
2023/08/13 00:10:22;;;;;;;12.18;2.20;;;;;;;;;;5061704;28;20048;-71
2023/08/13 00:12:49;;;;;;;12.68;2.05;;;;;;;;;;5067554;28;20052;-71
2023/08/13 00:15:17;;;;;;;16.95;2.15;;;;;;;;;;5069117;28;20521;-71
2023/08/13 00:17:44;;;;;;;14.07;1.95;;;;;;;;;;5066433;28;20840;-71
2023/08/13 00:20:12;;;;;;;11.82;1.75;;;;;;;;;;5069024;28;20063;-71
2023/08/13 00:22:40;;;;;;;12.27;2.00;;;;;;;;;;5069207;28;20066;-71
2023/08/13 00:25:08;;;;;;;12.43;1.75;;;;;;;;;;5069204;28;20052;-71
2023/08/13 00:27:35;;;;;;;10.32;1.73;;;;;;;;;;5068760;28;20056;-71
2023/08/13 00:30:03;;;;;;;12.45;1.90;;;;;;;;;;5068683;28;20058;-72
2023/08/13 00:32:30;;;;;;;7.38;1.80;;;;;;;;;;5069026;28;20131;-72
2023/08/13 00:34:57;;;;;;;11.48;2.35;;;;;;;;;;5067956;28;20044;-72
2023/08/13 00:37:24;;;;;;;7.97;1.67;;;;;;;;;;5068756;28;20044;-71
2023/08/13 00:39:53;;;;;;;9.30;2.08;;;;;;;;;;5068650;28;20049;-71
2023/08/13 00:42:20;;;;;;;12.70;1.70;;;;;;;;;;5067092;28;20060;-71
2023/08/13 00:44:47;;;;;;;14.63;1.95;;;;;;;;;;5065303;28;20506;-72
2023/08/13 00:47:15;;;;;;;12.40;2.15;;;;;;;;;;5069689;28;20502;-71
2023/08/13 00:49:42;;;;;;;16.17;2.28;;;;;;;;;;5065960;28;20053;-71
2023/08/13 00:52:09;;;;;;;10.10;2.10;;;;;;;;;;5069375;28;20071;-71
2023/08/13 00:54:36;;;;;;;16.15;1.90;;;;;;;;;;5063865;28;20044;-71
2023/08/13 00:57:06;;;;;;;11.98;1.95;;;;;;;;;;5065278;28;20052;-71
2023/08/13 00:59:34;;;;;;;10.50;2.17;;;;;;;;;;5064448;28;20071;-71
2023/08/13 01:02:01;;;;;;;13.15;2.05;;;;;;;;;;5063923;28;20048;-71
2023/08/13 01:04:28;;;;;;;13.88;2.15;;;;;;;;;;5062766;28;20040;-71
2023/08/13 01:07:02;;;;;;;15.48;2.22;;;;;;;;;;5068352;28;20045;-71
2023/08/13 01:09:33;;;;;;;10.27;1.88;;;;;;;;;;5058321;28;20068;-71
2023/08/13 01:12:04;;;;;;;16.40;2.33;;;;;;;;;;5064505;28;20045;-71
2023/08/13 01:14:36;;;;;;;9.23;2.22;;;;;;;;;;5061853;28;20055;-71
2023/08/13 01:17:04;;;;;;;12.27;1.85;;;;;;;;;;5064315;28;20055;-72
2023/08/13 01:19:31;;;;;;;8.63;1.90;;;;;;;;;;5062885;28;20056;-71
2023/08/13 01:21:58;;;;;;;7.85;1.85;;;;;;;;;;5064731;28;20132;-71
2023/08/13 01:24:27;;;;;;;15.40;1.70;;;;;;;;;;5065981;28;20040;-71
2023/08/13 01:26:59;;;;;;;9.35;1.92;;;;;;;;;;5062179;28;20110;-71
2023/08/13 01:29:31;;;;;;;13.88;2.08;;;;;;;;;;5060852;28;20049;-71
2023/08/13 01:32:02;;;;;;;7.82;1.95;;;;;;;;;;5063809;28;20466;-71
2023/08/13 01:34:29;;;;;;;16.88;2.30;;;;;;;;;;5067007;28;20045;-71
2023/08/13 01:36:57;;;;;;;18.08;2.50;;;;;;;;;;5063688;28;20045;-71
2023/08/13 01:39:25;;;;;;;10.73;1.92;;;;;;;;;;5067743;28;20052;-71
2023/08/13 01:41:54;;;;;;;12.27;2.20;;;;;;;;;;5068595;28;20055;-71
2023/08/13 01:44:21;;;;;;;13.55;2.13;;;;;;;;;;5058473;28;20052;-71
2023/08/13 01:46:49;;;;;;;8.15;1.77;;;;;;;;;;5063690;28;20814;-71
2023/08/13 01:49:16;;;;;;;7.50;1.95;;;;;;;;;;5058575;28;20056;-71
2023/08/13 01:51:43;;;;;;;13.55;2.53;;;;;;;;;;5067897;28;20056;-71
2023/08/13 01:54:10;;;;;;;15.88;2.50;;;;;;;;;;5067663;28;20538;-70
2023/08/13 01:56:38;;;;;;;13.45;1.95;;;;;;;;;;5059788;28;20045;-72
2023/08/13 01:59:07;;;;;;;10.88;2.17;;;;;;;;;;5066453;28;20403;-71
2023/08/13 02:01:34;;;;;;;13.23;2.00;;;;;;;;;;5066333;28;20053;-71
2023/08/13 02:04:01;;;;;;;10.48;2.35;;;;;;;;;;5060571;28;20483;-71
2023/08/13 02:06:30;;;;;;;9.55;1.90;;;;;;;;;;5063754;28;20256;-71
2023/08/13 02:08:57;;;;;;;15.70;2.20;;;;;;;;;;5063127;28;20045;-72
2023/08/13 02:11:24;;;;;;;10.40;2.42;;;;;;;;;;5063005;28;20050;-71
2023/08/13 02:13:51;;;;;;;7.57;1.60;;;;;;;;;;5064187;28;20102;-71
2023/08/13 02:16:20;;;;;;;13.45;2.10;;;;;;;;;;5065418;28;20056;-70
2023/08/13 02:18:47;;;;;;;15.23;2.22;;;;;;;;;;5065657;28;20063;-71
2023/08/13 02:21:14;;;;;;;10.27;1.90;;;;;;;;;;5065130;28;20041;-72
2023/08/13 02:23:42;;;;;;;11.20;1.73;;;;;;;;;;5067421;28;20084;-71
2023/08/13 02:26:09;;;;;;;13.82;2.25;;;;;;;;;;5054621;28;20506;-71
2023/08/13 02:28:36;;;;;;;8.90;1.70;;;;;;;;;;5060450;28;20045;-71
2023/08/13 02:31:03;;;;;;;7.03;1.58;;;;;;;;;;5060624;28;20073;-71
2023/08/13 02:33:33;;;;;;;9.98;1.85;;;;;;;;;;5062841;28;20053;-71
2023/08/13 02:36:00;;;;;;;10.27;1.80;;;;;;;;;;5061922;28;20041;-71
2023/08/13 02:38:28;;;;;;;13.48;1.88;;;;;;;;;;5059666;28;20075;-71
2023/08/13 02:40:55;;;;;;;9.00;2.13;;;;;;;;;;5067733;28;20049;-71
2023/08/13 02:43:22;;;;;;;15.32;2.03;;;;;;;;;;5065525;28;20048;-71
2023/08/13 02:45:49;;;;;;;13.95;2.22;;;;;;;;;;5069322;28;20104;-71
2023/08/13 02:48:17;;;;;;;11.55;2.10;;;;;;;;;;5067397;28;20041;-70
2023/08/13 02:50:45;;;;;;;11.40;2.25;;;;;;;;;;5060071;28;20099;-71
2023/08/13 02:53:12;;;;;;;7.10;1.52;;;;;;;;;;5070212;28;20051;-70
2023/08/13 02:55:40;;;;;;;11.27;2.03;;;;;;;;;;5070853;28;20048;-71
2023/08/13 02:58:07;;;;;;;10.55;1.90;;;;;;;;;;5071111;28;20411;-71
2023/08/13 03:00:34;;;;;;;14.55;2.00;;;;;;;;;;5069925;28;20083;-71
2023/08/13 03:03:01;;;;;;;11.88;2.78;;;;;;;;;;5070250;28;20062;-71
2023/08/13 03:05:30;;;;;;;6.55;1.63;;;;;;;;;;5064905;28;20057;-71
2023/08/13 03:07:59;;;;;;;14.13;2.45;;;;;;;;;;5069316;28;20056;-71
2023/08/13 03:10:26;;;;;;;11.88;1.80;;;;;;;;;;5065106;28;20048;-71
2023/08/13 03:12:53;;;;;;;13.07;2.25;;;;;;;;;;5067039;28;20075;-71
2023/08/13 03:15:20;;;;;;;13.90;1.95;;;;;;;;;;5070275;28;20060;-71
2023/08/13 03:17:47;;;;;;;8.68;1.83;;;;;;;;;;5064652;28;20063;-71
2023/08/13 03:20:15;;;;;;;7.97;1.77;;;;;;;;;;5067645;28;20045;-71
2023/08/13 03:22:42;;;;;;;13.82;2.00;;;;;;;;;;5066353;28;20052;-71
2023/08/13 03:25:11;;;;;;;12.38;2.05;;;;;;;;;;5070115;28;20050;-71
2023/08/13 03:27:38;;;;;;;11.70;1.92;;;;;;;;;;5066772;28;20059;-71
2023/08/13 03:30:06;;;;;;;11.73;2.08;;;;;;;;;;5067673;28;20044;-71
2023/08/13 03:32:33;;;;;;;12.98;1.90;;;;;;;;;;5065236;28;20075;-71
2023/08/13 03:35:00;;;;;;;7.60;1.60;;;;;;;;;;5065900;28;20060;-71
2023/08/13 03:37:28;;;;;;;15.65;2.17;;;;;;;;;;5066679;28;20044;-71
2023/08/13 03:39:55;;;;;;;12.45;2.55;;;;;;;;;;5064494;28;20055;-71
2023/08/13 03:42:24;;;;;;;14.95;2.00;;;;;;;;;;5064730;28;20052;-71
2023/08/13 03:44:51;;;;;;;10.45;1.80;;;;;;;;;;5063375;28;20053;-71
2023/08/13 03:47:19;;;;;;;11.38;2.40;;;;;;;;;;5070021;28;20521;-71
2023/08/13 03:49:46;;;;;;;10.02;1.98;;;;;;;;;;5060781;28;20055;-71
2023/08/13 03:52:13;;;;;;;10.10;1.70;;;;;;;;;;5065972;28;20068;-71
2023/08/13 03:54:40;;;;;;;15.75;1.85;;;;;;;;;;5062765;28;20063;-71
2023/08/13 03:57:07;;;;;;;14.15;1.90;;;;;;;;;;5069361;28;20052;-71
2023/08/13 03:59:36;;;;;;;10.27;2.08;;;;;;;;;;5068689;28;20059;-71
2023/08/13 04:02:03;;;;;;;12.13;1.88;;;;;;;;;;5073877;28;20352;-71
2023/08/13 04:04:31;;;;;;;11.48;1.90;;;;;;;;;;5067681;28;20058;-71
2023/08/13 04:06:58;;;;;;;11.27;1.88;;;;;;;;;;5068848;28;20061;-71
2023/08/13 04:09:25;;;;;;;15.02;1.90;;;;;;;;;;5069356;28;20044;-71
2023/08/13 04:11:52;;;;;;;12.48;2.00;;;;;;;;;;5068537;28;20052;-71
2023/08/13 04:14:20;;;;;;;10.00;1.77;;;;;;;;;;5059641;28;20040;-71
2023/08/13 04:16:48;;;;;;;12.00;2.05;;;;;;;;;;5055165;28;20049;-71
2023/08/13 04:19:15;;;;;;;10.88;1.90;;;;;;;;;;5060467;28;20056;-71
2023/08/13 04:21:43;;;;;;;11.65;1.70;;;;;;;;;;5063342;28;20049;-71
2023/08/13 04:24:11;;;;;;;14.88;1.95;;;;;;;;;;5067909;28;20048;-71
2023/08/13 04:26:38;;;;;;;14.68;2.10;;;;;;;;;;5064231;28;20451;-71
2023/08/13 04:29:05;;;;;;;10.30;1.77;;;;;;;;;;5064911;28;20048;-72
2023/08/13 04:31:32;;;;;;;15.80;2.70;;;;;;;;;;5062238;28;20075;-71
2023/08/13 04:34:01;;;;;;;11.23;1.80;;;;;;;;;;5062989;28;20045;-71
2023/08/13 04:36:28;;;;;;;11.23;1.90;;;;;;;;;;5066809;28;20056;-71
2023/08/13 04:38:56;;;;;;;12.40;1.80;;;;;;;;;;5068414;28;20055;-71
2023/08/13 04:41:23;;;;;;;11.43;2.20;;;;;;;;;;5060424;28;20614;-71
2023/08/13 04:43:50;;;;;;;16.50;1.80;;;;;;;;;;5068092;28;21231;-71
2023/08/13 04:46:17;;;;;;;9.48;1.75;;;;;;;;;;5066764;28;20051;-71
2023/08/13 04:48:45;;;;;;;7.93;1.77;;;;;;;;;;5062091;28;20056;-71
2023/08/13 04:51:15;;;;;;;7.93;1.88;;;;;;;;;;5061962;28;20048;-71
2023/08/13 04:53:42;;;;;;;16.08;2.50;;;;;;;;;;5068385;28;20053;-71
2023/08/13 04:56:10;;;;;;;13.20;1.90;;;;;;;;;;5066312;28;20040;-71
2023/08/13 04:58:37;;;;;;;16.02;1.67;;;;;;;;;;5067890;28;20052;-71
2023/08/13 05:01:05;;;;;;;9.95;1.50;;;;;;;;;;5067043;28;20048;-71
2023/08/13 05:03:33;;;;;;;11.00;1.60;;;;;;;;;;5068528;28;20083;-71
2023/08/13 05:06:00;;;;;;;9.82;1.70;;;;;;;;;;5068434;28;20080;-71
2023/08/13 05:08:29;;;;;;;14.52;2.25;;;;;;;;;;5068296;28;20045;-71
2023/08/13 05:10:56;;;;;;;8.73;1.80;;;;;;;;;;5062221;28;20052;-71
2023/08/13 05:13:23;;;;;;;13.90;2.00;;;;;;;;;;5068433;28;20060;-71
2023/08/13 05:15:50;;;;;;;10.80;2.17;;;;;;;;;;5067256;28;20048;-71
2023/08/13 05:18:17;;;;;;;10.77;1.85;;;;;;;;;;5059841;28;20048;-71
2023/08/13 05:20:45;;;;;;;14.65;2.50;;;;;;;;;;5068389;28;20049;-70
2023/08/13 05:23:12;;;;;;;12.65;1.95;;;;;;;;;;5060889;28;20052;-71
2023/08/13 05:25:41;;;;;;;12.10;2.42;;;;;;;;;;5064584;28;20049;-71
2023/08/13 05:28:08;;;;;;;11.73;1.58;;;;;;;;;;5069260;28;20051;-71
2023/08/13 05:30:36;;;;;;;9.38;2.10;;;;;;;;;;5065780;28;20419;-71
2023/08/13 05:33:03;;;;;;;10.30;1.63;;;;;;;;;;5066937;28;20052;-70
2023/08/13 05:35:30;;;;;;;12.02;2.03;;;;;;;;;;5067063;28;20053;-71
2023/08/13 05:37:58;;;;;;;13.15;1.65;;;;;;;;;;5066398;28;20052;-70
2023/08/13 05:40:25;;;;;;;10.95;1.83;;;;;;;;;;5059264;28;20496;-70
2023/08/13 05:42:54;;;;;;;11.80;1.63;;;;;;;;;;5066950;28;20041;-70
2023/08/13 05:45:21;;;;;;;12.80;1.77;;;;;;;;;;5060230;28;20048;-71
2023/08/13 05:47:48;;;;;;;9.63;1.75;;;;;;;;;;5066854;28;20056;-70
2023/08/13 05:50:15;;;;;;;12.40;2.05;;;;;;;;;;5068752;28;20055;-70
2023/08/13 05:52:43;;;;;;;10.90;1.90;;;;;;;;;;5058923;28;20141;-71
2023/08/13 05:55:10;;;;;;;10.05;1.52;;;;;;;;;;5068071;28;20040;-71
2023/08/13 05:57:37;;;;;;;12.77;2.00;;;;;;;;;;5066541;28;20053;-71
2023/08/13 06:00:09;;;;;;;11.23;1.95;;;;;;;;;;5067543;28;20049;-71
2023/08/13 06:02:37;;;;;;;15.43;1.92;;;;;;;;;;5063109;28;20053;-71
2023/08/13 06:05:06;;;;;;;9.98;1.63;;;;;;;;;;5065000;28;20495;-71
2023/08/13 06:07:33;;;;;;;12.05;1.92;;;;;;;;;;5062203;28;20324;-71
2023/08/13 06:10:01;;;;;;;8.02;1.73;;;;;;;;;;5075054;28;20084;-71
2023/08/13 06:12:28;;;;;;;8.40;1.85;;;;;;;;;;5064580;28;20487;-71
2023/08/13 06:14:55;;;;;;;10.75;2.30;;;;;;;;;;5071305;28;20067;-71
2023/08/13 06:17:24;;;;;;;9.90;1.45;;;;;;;;;;5061883;28;20325;-71
2023/08/13 06:19:51;;;;;;;14.18;2.25;;;;;;;;;;5072192;28;20411;-72
2023/08/13 06:22:19;;;;;;;12.82;1.70;;;;;;;;;;5068344;28;20040;-71
2023/08/13 06:24:46;;;;;;;8.98;1.88;;;;;;;;;;5062633;28;20055;-71
2023/08/13 06:27:13;;;;;;;7.07;1.55;;;;;;;;;;5066757;28;20120;-71
2023/08/13 06:29:40;;;;;;;9.43;1.90;;;;;;;;;;5065765;28;20056;-71
2023/08/13 06:32:08;;;;;;;10.05;1.60;;;;;;;;;;5059447;28;20053;-72
2023/08/13 06:34:36;;;;;;;11.00;1.50;;;;;;;;;;5070549;28;20071;-71
2023/08/13 06:37:04;;;;;;;12.95;2.00;;;;;;;;;;5069130;28;20052;-71
2023/08/13 06:39:31;;;;;;;8.68;1.58;;;;;;;;;;5068497;28;20476;-71
2023/08/13 06:41:59;;;;;;;10.55;1.92;;;;;;;;;;5067999;28;20057;-71
2023/08/13 06:44:26;;;;;;;10.82;1.45;;;;;;;;;;5065353;28;20071;-71
2023/08/13 06:46:54;;;;;;;8.65;1.60;;;;;;;;;;5064257;28;20053;-71
2023/08/13 06:49:21;;;;;;;6.88;1.73;;;;;;;;;;5060255;28;20110;-72
2023/08/13 06:51:50;;;;;;;8.32;1.77;;;;;;;;;;5069681;28;20056;-72
2023/08/13 06:54:18;;;;;;;11.30;1.63;;;;;;;;;;5065463;28;20131;-70
2023/08/13 06:56:45;;;;;;;9.60;1.75;;;;;;;;;;5070975;28;20048;-71
2023/08/13 06:59:12;;;;;;;9.55;2.35;;;;;;;;;;5068498;28;20064;-72
2023/08/13 07:01:40;;;;;;;10.55;1.70;;;;;;;;;;5064796;28;20070;-71
2023/08/13 07:04:07;;;;;;;6.97;1.73;;;;;;;;;;5070864;28;20770;-71
2023/08/13 07:06:34;;;;;;;8.88;1.30;;;;;;;;;;5061762;28;20048;-71
2023/08/13 07:09:04;;;;;;;10.65;1.65;;;;;;;;;;5069268;28;20053;-72
2023/08/13 07:11:32;;;;;;;8.73;1.38;;;;;;;;;;5069506;28;20059;-72
2023/08/13 07:14:03;;;;;;;10.10;1.88;;;;;;;;;;5069171;28;20068;-71
2023/08/13 07:16:30;;;;;;;7.45;1.30;;;;;;;;;;5065163;28;20052;-71
2023/08/13 07:18:57;;;;;;;8.82;1.52;;;;;;;;;;5069845;28;20059;-71
2023/08/13 07:21:25;;;;;;;9.10;1.35;;;;;;;;;;5069721;28;20705;-71
2023/08/13 07:23:52;;;;;;;13.50;1.85;;;;;;;;;;5069384;28;20057;-72
2023/08/13 07:26:21;;;;;;;6.43;1.58;;;;;;;;;;5061604;28;20061;-71
2023/08/13 07:28:48;;;;;;;5.57;1.20;;;;;;;;;;5069605;28;20047;-71
2023/08/13 07:31:15;;;;;;;6.70;1.50;;;;;;;;;;5067201;28;20053;-73
2023/08/13 07:33:42;;;;;;;8.30;1.75;;;;;;;;;;5065165;28;20060;-71
2023/08/13 07:36:10;;;;;;;8.27;1.60;;;;;;;;;;5070938;28;20048;-71
2023/08/13 07:38:37;;;;;;;5.20;1.27;;;;;;;;;;5067958;28;20052;-71
2023/08/13 07:41:05;;;;;;;7.25;1.50;;;;;;;;;;5068298;28;20053;-70
2023/08/13 07:43:34;;;;;;;6.22;1.30;;;;;;;;;;5066991;28;20053;-71
2023/08/13 07:46:01;;;;;;;4.20;1.20;;;;;;;;;;5069470;28;20078;-72
2023/08/13 07:48:28;;;;;;;5.57;1.48;;;;;;;;;;5066810;28;20045;-71
2023/08/13 07:50:56;;;;;;;8.68;1.27;;;;;;;;;;5068920;28;20071;-71
2023/08/13 07:53:23;;;;;;;7.53;1.60;;;;;;;;;;5069686;28;20040;-71
2023/08/13 07:55:50;;;;;;;6.63;1.63;;;;;;;;;;5068983;28;20404;-71
2023/08/13 07:58:18;;;;;;;3.88;1.10;;;;;;;;;;5063374;28;20036;-71
2023/08/13 08:00:47;;;;;;;12.35;1.70;;;;;;;;;;5062284;28;20052;-71
2023/08/13 08:03:14;;;;;;;5.43;1.17;;;;;;;;;;5069029;28;20048;-71
2023/08/13 08:05:42;;;;;;;5.32;1.02;;;;;;;;;;5069071;28;20048;-71
2023/08/13 08:08:09;;;;;;;5.05;1.10;;;;;;;;;;5064375;28;20114;-71
2023/08/13 08:10:36;;;;;;;9.40;1.90;;;;;;;;;;5066147;28;20052;-71
2023/08/13 08:13:03;;;;;;;5.97;1.48;;;;;;;;;;5066538;28;20040;-72
2023/08/13 08:15:31;;;;;;;7.60;1.20;;;;;;;;;;5066975;28;20748;-71
2023/08/13 08:17:59;;;;;;;6.85;1.08;;;;;;;;;;5067933;28;20063;-71
2023/08/13 08:20:26;;;;;;;7.45;1.40;;;;;;;;;;5061795;28;20372;-71
2023/08/13 08:22:54;;;;;;;7.20;1.25;;;;;;;;;;5069908;28;20407;-71
2023/08/13 08:25:21;;;;;;;5.85;1.75;;;;;;;;;;5058692;28;20440;-73
2023/08/13 08:27:48;;;;;;;3.05;1.10;;;;;;;;;;5053980;28;20048;-72
2023/08/13 08:30:15;;;;;;;7.15;1.30;;;;;;;;;;5058536;28;20485;-75
2023/08/13 08:32:43;;;;;;;6.47;1.27;;;;;;;;;;5060534;28;20452;-71
2023/08/13 08:35:11;;;;;;;3.55;0.80;;;;;;;;;;5068430;28;20471;-73
2023/08/13 08:37:39;;;;;;;5.43;1.30;;;;;;;;;;5069437;28;21273;-73
2023/08/13 08:40:07;;;;;;;6.28;1.17;;;;;;;;;;5063115;28;20044;-73
2023/08/13 08:42:34;;;;;;;6.32;1.50;;;;;;;;;;5069061;28;20048;-71
2023/08/13 08:45:02;;;;;;;4.65;1.20;;;;;;;;;;5065128;28;20051;-72
2023/08/13 08:47:29;;;;;;;8.20;1.20;;;;;;;;;;5060654;28;20057;-71
2023/08/13 08:49:57;;;;;;;6.60;1.23;;;;;;;;;;5062429;28;20453;-71
2023/08/13 08:52:25;;;;;;;8.02;1.65;;;;;;;;;;5057287;28;20508;-70
2023/08/13 08:54:53;;;;;;;5.45;1.63;;;;;;;;;;5066346;28;20407;-71
2023/08/13 08:57:20;;;;;;;5.43;1.20;;;;;;;;;;5064744;28;20041;-73
2023/08/13 08:59:47;;;;;;;7.90;1.50;;;;;;;;;;5061124;28;20048;-72
2023/08/13 09:02:15;;;;;;;6.60;1.13;;;;;;;;;;5067323;28;20052;-71
2023/08/13 09:04:42;;;;;;;4.05;1.05;;;;;;;;;;5069047;28;20049;-72
2023/08/13 09:07:10;;;;;;;6.80;1.60;;;;;;;;;;5061964;28;20562;-72
2023/08/13 09:09:43;;;;;;;5.63;1.10;;;;;;;;;;5068976;28;20048;-71
2023/08/13 09:12:10;;;;;;;6.15;1.17;;;;;;;;;;5067927;28;20051;-72
2023/08/13 09:14:37;;;;;;;3.17;0.98;;;;;;;;;;5067201;28;20048;-71
2023/08/13 09:17:05;;;;;;;6.10;1.38;;;;;;;;;;5062222;28;20500;-72
2023/08/13 09:19:34;;;;;;;4.85;1.00;;;;;;;;;;5063689;28;20052;-71
2023/08/13 09:22:01;;;;;;;5.07;0.90;;;;;;;;;;5068042;28;20496;-71
2023/08/13 09:24:33;;;;;;;4.95;1.00;;;;;;;;;;5062448;28;20578;-73
2023/08/13 09:27:02;;;;;;;4.78;1.27;;;;;;;;;;5064064;28;20763;-73
2023/08/13 09:29:30;;;;;;;6.65;1.23;;;;;;;;;;5068555;28;20230;-72
2023/08/13 09:31:58;;;;;;;5.72;1.50;;;;;;;;;;5064338;28;20518;-71
2023/08/13 09:34:25;;;;;;;6.07;1.40;;;;;;;;;;5060789;28;20045;-72
2023/08/13 09:36:54;;;;;;;7.28;1.20;;;;;;;;;;5067729;28;20056;-72
2023/08/13 09:39:21;;;;;;;5.93;1.10;;;;;;;;;;5066707;28;20056;-71
2023/08/13 09:41:50;;;;;;;6.05;1.05;;;;;;;;;;5062768;28;20044;-71
2023/08/13 09:44:19;;;;;;;6.07;1.20;;;;;;;;;;5067773;28;20040;-71
2023/08/13 09:46:49;;;;;;;3.92;1.25;;;;;;;;;;5061432;28;20064;-70
2023/08/13 09:49:17;;;;;;;4.93;1.20;;;;;;;;;;5061814;28;20499;-71
2023/08/13 09:51:45;;;;;;;6.57;1.20;;;;;;;;;;5068038;28;20048;-71
2023/08/13 09:54:14;;;;;;;7.72;1.20;;;;;;;;;;5064134;28;20088;-71
2023/08/13 09:56:43;;;;;;;5.63;1.17;;;;;;;;;;5065485;28;20057;-71
2023/08/13 09:59:12;;;;;;;4.80;1.35;;;;;;;;;;5067267;28;20056;-76
2023/08/13 10:01:41;;;;;;;5.50;1.02;;;;;;;;;;5054683;28;20059;-71
2023/08/13 10:04:09;;;;;;;4.47;0.95;;;;;;;;;;5067428;28;20040;-71
2023/08/13 10:06:36;;;;;;;4.00;1.02;;;;;;;;;;5066744;28;20079;-71
2023/08/13 10:09:04;;;;;;;2.42;0.90;;;;;;;;;;5063211;28;20099;-71
2023/08/13 10:11:31;;;;;;;3.13;0.70;;;;;;;;;;5066377;28;20055;-72
2023/08/13 10:13:58;;;;;;;4.75;0.85;;;;;;;;;;5061133;28;20040;-71
2023/08/13 10:16:27;;;;;;;6.90;0.90;;;;;;;;;;5063843;28;20051;-71
2023/08/13 10:18:57;;;;;;;2.35;0.90;;;;;;;;;;5067099;28;20056;-71
2023/08/13 10:21:34;;;;;;;5.07;0.80;;;;;;;;;;5068535;28;20045;-71
2023/08/13 10:24:02;;;;;;;4.82;0.93;;;;;;;;;;5065128;28;20055;-73
2023/08/13 10:26:29;;;;;;;5.45;0.82;;;;;;;;;;5064299;28;20060;-73
2023/08/13 10:28:56;;;;;;;7.05;1.08;;;;;;;;;;5067355;28;20049;-71
2023/08/13 10:31:30;;;;;;;6.13;1.10;;;;;;;;;;5064590;28;20053;-71
2023/08/13 10:34:03;;;;;;;5.45;0.98;;;;;;;;;;5065146;28;20106;-70
2023/08/13 10:36:44;;;;;;;4.30;1.05;;;;;;;;;;5066259;28;20051;-71
2023/08/13 10:39:29;;;;;;;3.20;0.93;;;;;;;;;;5066800;28;20048;-71
2023/08/13 10:41:57;;;;;;;7.80;0.95;;;;;;;;;;5063281;28;20048;-70
2023/08/13 10:44:33;;;;;;;4.47;1.08;;;;;;;;;;5066663;28;20063;-71
2023/08/13 10:47:00;;;;;;;7.68;1.40;;;;;;;;;;5060797;28;20075;-73
2023/08/13 10:49:29;;;;;;;7.15;1.30;;;;;;;;;;5058519;28;20123;-71
2023/08/13 10:52:01;;;;;;;4.00;1.27;;;;;;;;;;5066060;28;20056;-71
2023/08/13 10:54:28;;;;;;;9.93;1.43;;;;;;;;;;5065588;28;20152;-71
2023/08/13 10:56:57;;;;;;;4.03;1.08;;;;;;;;;;5064979;28;20040;-71
2023/08/13 10:59:31;;;;;;;2.45;0.77;;;;;;;;;;5074185;28;20064;-71
2023/08/13 11:02:19;;;;;;;3.92;0.88;;;;;;;;;;5070996;28;20045;-71
2023/08/13 11:04:48;;;;;;;3.67;0.75;;;;;;;;;;5059110;28;20056;-76
2023/08/13 11:07:15;;;;;;;2.75;0.65;;;;;;;;;;5067770;28;20158;-71
2023/08/13 11:09:43;;;;;;;3.92;0.70;;;;;;;;;;5068922;28;20052;-71
2023/08/13 11:12:11;;;;;;;5.50;1.00;;;;;;;;;;5062984;28;20052;-72
2023/08/13 11:14:38;;;;;;;3.70;0.82;;;;;;;;;;5067409;28;21007;-72
2023/08/13 11:17:06;;;;;;;3.70;1.08;;;;;;;;;;5069206;28;20059;-71
2023/08/13 11:19:33;;;;;;;6.25;1.10;;;;;;;;;;5065251;28;20045;-71
2023/08/13 11:22:03;;;;;;;2.20;0.65;;;;;;;;;;5067639;28;20045;-72
2023/08/13 11:24:32;;;;;;;4.28;0.57;;;;;;;;;;5066193;28;20071;-71
2023/08/13 11:27:00;;;;;;;2.85;0.93;;;;;;;;;;5070337;28;20044;-70
2023/08/13 11:29:28;;;;;;;5.22;1.00;;;;;;;;;;5066843;28;20045;-71
2023/08/13 11:31:55;;;;;;;2.95;0.90;;;;;;;;;;5066824;28;20134;-73
2023/08/13 11:34:22;;;;;;;4.30;0.90;;;;;;;;;;5066598;28;20080;-71
2023/08/13 11:36:51;;;;;;;5.82;1.08;;;;;;;;;;5068370;28;20067;-73
2023/08/13 11:39:19;;;;;;;2.33;0.80;;;;;;;;;;5068961;28;20049;-71
2023/08/13 11:41:47;;;;;;;5.55;1.13;;;;;;;;;;5062064;28;20049;-71
2023/08/13 11:44:15;;;;;;;3.78;0.80;;;;;;;;;;5067950;28;20110;-73
2023/08/13 11:47:00;;;;;;;3.97;1.30;;;;;;;;;;5068542;28;20053;-71
2023/08/13 11:49:28;;;;;;;3.30;1.00;;;;;;;;;;5069331;28;20048;-71
2023/08/13 11:51:56;;;;;;;6.25;1.30;;;;;;;;;;5070072;28;20110;-71
2023/08/13 11:54:25;;;;;;;5.18;0.98;;;;;;;;;;5061536;28;20052;-73
2023/08/13 11:56:54;;;;;;;3.33;1.13;;;;;;;;;;5069924;28;20062;-71
2023/08/13 11:59:24;;;;;;;4.28;1.00;;;;;;;;;;5064962;28;20110;-71
2023/08/13 12:01:53;;;;;;;3.22;0.80;;;;;;;;;;5068841;28;20071;-71
2023/08/13 12:04:21;;;;;;;4.13;1.05;;;;;;;;;;5058883;28;20060;-74
2023/08/13 12:06:48;;;;;;;6.30;1.20;;;;;;;;;;5064166;28;20055;-71
2023/08/13 12:09:15;;;;;;;2.22;0.80;;;;;;;;;;5067289;28;20053;-71
2023/08/13 12:11:44;;;;;;;2.75;1.00;;;;;;;;;;5068901;28;20051;-71
2023/08/13 12:14:12;;;;;;;3.53;1.08;;;;;;;;;;5062658;28;20503;-74
2023/08/13 12:16:39;;;;;;;3.90;1.05;;;;;;;;;;5065471;28;20063;-70
2023/08/13 12:19:06;;;;;;;5.45;1.15;;;;;;;;;;5068071;28;20053;-71
2023/08/13 12:21:34;;;;;;;2.60;0.95;;;;;;;;;;5070382;28;20136;-70
2023/08/13 12:24:04;;;;;;;3.42;1.30;;;;;;;;;;5062152;28;20049;-71
2023/08/13 12:26:31;;;;;;;2.88;0.90;;;;;;;;;;5069158;28;20102;-71
2023/08/13 12:29:01;;;;;;;4.53;1.33;;;;;;;;;;5066884;28;20052;-71
2023/08/13 12:31:30;;;;;;;3.50;0.90;;;;;;;;;;5065192;28;20061;-71
2023/08/13 12:33:57;;;;;;;4.97;1.30;;;;;;;;;;5066713;28;20078;-71
2023/08/13 12:36:24;;;;;;;4.18;1.55;;;;;;;;;;5063992;28;20143;-71
2023/08/13 12:38:51;;;;;;;2.63;0.90;;;;;;;;;;5067633;28;20048;-72
2023/08/13 12:41:19;;;;;;;4.43;0.80;;;;;;;;;;5060896;28;20045;-71
2023/08/13 12:43:47;;;;;;;3.65;0.88;;;;;;;;;;5068112;28;20099;-70
2023/08/13 12:46:16;;;;;;;3.80;0.90;;;;;;;;;;5066510;28;20044;-71
2023/08/13 12:48:43;;;;;;;5.78;0.90;;;;;;;;;;5068848;28;20502;-70
2023/08/13 12:51:11;;;;;;;3.42;0.98;;;;;;;;;;5065706;28;20484;-71
2023/08/13 12:53:38;;;;;;;2.88;1.00;;;;;;;;;;5067391;28;20060;-70
2023/08/13 12:56:05;;;;;;;6.70;1.23;;;;;;;;;;5063286;28;20045;-70
2023/08/13 12:58:33;;;;;;;3.58;1.00;;;;;;;;;;5059592;28;20041;-70
2023/08/13 13:01:01;;;;;;;2.90;0.90;;;;;;;;;;5066315;28;20506;-71
2023/08/13 13:03:30;;;;;;;4.20;1.00;;;;;;;;;;5068438;28;20049;-70
2023/08/13 13:05:57;;;;;;;3.85;1.30;;;;;;;;;;5063711;28;20130;-70
2023/08/13 13:08:25;;;;;;;5.82;1.00;;;;;;;;;;5062973;28;20115;-71
2023/08/13 13:10:52;;;;;;;5.25;1.13;;;;;;;;;;5054229;28;20085;-70
2023/08/13 13:13:19;;;;;;;2.92;0.98;;;;;;;;;;5062387;28;20055;-71
2023/08/13 13:15:46;;;;;;;5.50;1.30;;;;;;;;;;5067954;28;20051;-72
2023/08/13 13:18:14;;;;;;;3.85;1.02;;;;;;;;;;5067001;28;20060;-71
2023/08/13 13:20:42;;;;;;;4.65;1.02;;;;;;;;;;5064934;28;20087;-71
2023/08/13 13:23:10;;;;;;;3.42;0.90;;;;;;;;;;5060141;28;20177;-71
2023/08/13 13:25:38;;;;;;;1.63;0.80;;;;;;;;;;5066613;28;20067;-72
2023/08/13 13:28:05;;;;;;;3.90;1.00;;;;;;;;;;5066573;28;20074;-71
2023/08/13 13:30:33;;;;;;;2.30;1.00;;;;;;;;;;5065043;28;20075;-71
2023/08/13 13:33:01;;;;;;;5.13;0.90;;;;;;;;;;5060925;28;20076;-72
2023/08/13 13:35:28;;;;;;;3.05;0.80;;;;;;;;;;5065288;28;20044;-71
2023/08/13 13:37:58;;;;;;;2.25;1.00;;;;;;;;;;5062663;28;20520;-72
2023/08/13 13:40:25;;;;;;;3.35;1.10;;;;;;;;;;5067209;28;20391;-71
2023/08/13 13:42:54;;;;;;;4.70;0.70;;;;;;;;;;5066259;28;20048;-72
2023/08/13 13:45:22;;;;;;;2.83;0.80;;;;;;;;;;5060299;28;20487;-75
2023/08/13 13:47:49;;;;;;;1.75;0.73;;;;;;;;;;5061761;28;20139;-72
2023/08/13 13:50:17;;;;;;;1.40;0.70;;;;;;;;;;5061686;28;20055;-72
2023/08/13 13:52:44;;;;;;;1.75;0.77;;;;;;;;;;5059431;28;20131;-71
2023/08/13 13:55:13;;;;;;;3.88;0.90;;;;;;;;;;5062419;28;20550;-72
2023/08/13 13:57:40;;;;;;;2.25;0.90;;;;;;;;;;5066298;28;20052;-71
2023/08/13 14:00:08;;;;;;;2.92;0.80;;;;;;;;;;5065630;28;20050;-71
2023/08/13 14:02:35;;;;;;;2.00;0.60;;;;;;;;;;5060880;28;20044;-72
2023/08/13 14:05:03;;;;;;;2.55;0.70;;;;;;;;;;5068771;28;20126;-72
2023/08/13 14:07:31;;;;;;;4.70;1.00;;;;;;;;;;5065417;28;20044;-71
2023/08/13 14:09:58;;;;;;;3.08;0.90;;;;;;;;;;5067761;28;20048;-71
2023/08/13 14:12:27;;;;;;;1.55;0.90;;;;;;;;;;5066578;28;20143;-72
2023/08/13 14:14:54;;;;;;;2.30;0.90;;;;;;;;;;5068752;28;20048;-71
2023/08/13 14:17:21;;;;;;;3.33;0.80;;;;;;;;;;5066389;28;20044;-71
2023/08/13 14:19:48;;;;;;;2.88;0.90;;;;;;;;;;5066730;28;20059;-71
2023/08/13 14:22:16;;;;;;;2.20;0.70;;;;;;;;;;5066460;28;20488;-71
2023/08/13 14:24:43;;;;;;;2.13;0.82;;;;;;;;;;5067957;28;20047;-72
2023/08/13 14:27:10;;;;;;;1.63;0.70;;;;;;;;;;5058189;28;20055;-71
2023/08/13 14:29:39;;;;;;;2.78;1.10;;;;;;;;;;5066390;28;20045;-72
2023/08/13 14:32:07;;;;;;;2.83;0.90;;;;;;;;;;5068242;28;20060;-72
2023/08/13 14:34:34;;;;;;;2.20;0.80;;;;;;;;;;5071500;28;20518;-71
2023/08/13 14:37:01;;;;;;;2.78;0.93;;;;;;;;;;5070945;28;20392;-71
2023/08/13 14:39:29;;;;;;;1.60;0.85;;;;;;;;;;5066983;28;20055;-71
2023/08/13 14:41:57;;;;;;;0.82;0.57;;;;;;;;;;5070722;28;20056;-71